Time;durP1;ratioP1;P1;durP2;ratioP2;P2;SDS_P1;SDS_P2;PMS_P1;PMS_P2;Temp;Humidity;BMP_temperature;BMP_pressure;BME280_temperature;BME280_humidity;BME280_pressure;Samples;Min_cycle;Max_cycle;Signal;HPM_P1;HPM_P2
2021/12/27 00:00:35;;;;;;;33.95;21.40;;;;;;;;;;4989912;28;20121;-67
2021/12/27 00:03:01;;;;;;;;;;;;;;;;;;4960990;28;20057;-68
2021/12/27 00:05:28;;;;;;;34.27;19.83;;;;;;;;;;4975754;28;19922;-67
2021/12/27 00:07:54;;;;;;;30.53;19.60;;;;;;;;;;5001353;28;20045;-66
2021/12/27 00:10:21;;;;;;;32.55;20.20;;;;;;;;;;4994553;28;20050;-66
2021/12/27 00:12:49;;;;;;;32.37;19.97;;;;;;;;;;4993031;28;20057;-68
2021/12/27 00:15:15;;;;;;;32.07;20.23;;;;;;;;;;4993235;28;20057;-67
2021/12/27 00:17:42;;;;;;;32.63;21.10;;;;;;;;;;4995860;28;20042;-65
2021/12/27 00:20:08;;;;;;;30.67;19.30;;;;;;;;;;5008354;28;20413;-64
2021/12/27 00:22:34;;;;;;;30.93;19.60;;;;;;;;;;5011912;28;20056;-68
2021/12/27 00:25:00;;;;;;;33.15;20.77;;;;;;;;;;5005331;28;20101;-66
2021/12/27 00:27:26;;;;;;;31.48;19.85;;;;;;;;;;4998065;28;20121;-66
2021/12/27 00:29:53;;;;;;;32.70;20.67;;;;;;;;;;5005726;28;20498;-66
2021/12/27 00:32:19;;;;;;;30.90;20.17;;;;;;;;;;4992780;28;20062;-67
2021/12/27 00:34:45;;;;;;;36.67;21.13;;;;;;;;;;4992319;28;20135;-64
2021/12/27 00:37:11;;;;;;;34.28;20.15;;;;;;;;;;4991867;28;20050;-65
2021/12/27 00:39:37;;;;;;;32.05;20.23;;;;;;;;;;5003680;28;20043;-65
2021/12/27 00:42:04;;;;;;;33.42;20.30;;;;;;;;;;5006158;28;20045;-64
2021/12/27 00:44:31;;;;;;;35.53;20.13;;;;;;;;;;5011702;28;20144;-67
2021/12/27 00:46:57;;;;;;;33.30;20.88;;;;;;;;;;5000816;28;20081;-64
2021/12/27 00:49:23;;;;;;;32.88;20.52;;;;;;;;;;4999450;28;20043;-65
2021/12/27 00:51:49;;;;;;;34.43;20.47;;;;;;;;;;4998623;28;20132;-65
2021/12/27 00:54:16;;;;;;;34.53;21.00;;;;;;;;;;4974861;28;20042;-66
2021/12/27 00:56:42;;;;;;;34.03;21.35;;;;;;;;;;4974473;28;20049;-65
2021/12/27 00:59:08;;;;;;;33.40;20.38;;;;;;;;;;5000694;28;20042;-64
2021/12/27 01:01:34;;;;;;;34.28;20.90;;;;;;;;;;5005846;28;20082;-67
2021/12/27 01:04:00;;;;;;;33.70;21.23;;;;;;;;;;5010805;28;20046;-67
2021/12/27 01:06:27;;;;;;;36.45;20.90;;;;;;;;;;4987833;28;20042;-64
2021/12/27 01:08:53;;;;;;;32.07;20.47;;;;;;;;;;4998527;28;20049;-65
2021/12/27 01:11:38;;;;;;;33.20;21.42;;;;;;;;;;4975100;28;20053;-64
2021/12/27 01:16:31;;;;;;;34.03;20.38;;;;;;;;;;5011316;28;20058;-65
2021/12/27 01:18:57;;;;;;;32.80;20.43;;;;;;;;;;4997787;28;20042;-65
2021/12/27 01:21:24;;;;;;;33.65;21.00;;;;;;;;;;4993888;28;20417;-68
2021/12/27 01:23:51;;;;;;;31.33;20.27;;;;;;;;;;4991391;28;20051;-66
2021/12/27 01:26:17;;;;;;;32.20;20.00;;;;;;;;;;4991975;28;20109;-65
2021/12/27 01:28:44;;;;;;;33.25;20.65;;;;;;;;;;5000352;28;20446;-64
2021/12/27 01:31:10;;;;;;;33.10;20.37;;;;;;;;;;4969401;28;20057;-64
2021/12/27 01:33:36;;;;;;;35.10;20.98;;;;;;;;;;4981402;28;20058;-67
2021/12/27 01:36:03;;;;;;;;;;;;;;;;;;4992063;28;20086;-64
2021/12/27 01:38:29;;;;;;;35.60;20.10;;;;;;;;;;5010270;28;19941;-66
2021/12/27 01:40:56;;;;;;;33.10;20.73;;;;;;;;;;4993520;28;20105;-65
2021/12/27 01:43:25;;;;;;;35.23;21.77;;;;;;;;;;5011196;28;20182;-65
2021/12/27 01:45:52;;;;;;;33.63;21.27;;;;;;;;;;5010202;28;20446;-68
2021/12/27 01:48:23;;;;;;;31.93;20.73;;;;;;;;;;4998704;28;20506;-66
2021/12/27 01:50:50;;;;;;;34.27;21.97;;;;;;;;;;4990906;28;20046;-65
2021/12/27 01:53:17;;;;;;;34.80;22.07;;;;;;;;;;4992327;28;20566;-67
2021/12/27 01:55:43;;;;;;;33.73;21.50;;;;;;;;;;5009410;28;20133;-64
2021/12/27 01:58:09;;;;;;;34.92;21.70;;;;;;;;;;5002649;28;20123;-64
2021/12/27 02:00:36;;;;;;;34.08;21.85;;;;;;;;;;4976383;28;20043;-66
2021/12/27 02:03:03;;;;;;;36.60;21.73;;;;;;;;;;4977688;28;20057;-64
2021/12/27 02:05:30;;;;;;;37.47;22.40;;;;;;;;;;4996980;28;20123;-65
2021/12/27 02:07:56;;;;;;;36.33;23.27;;;;;;;;;;5004365;28;20133;-64
2021/12/27 02:10:22;;;;;;;33.20;22.33;;;;;;;;;;4993532;28;20068;-64
2021/12/27 02:12:48;;;;;;;;;;;;;;;;;;5001180;28;20124;-64
2021/12/27 02:15:14;;;;;;;36.53;22.37;;;;;;;;;;4993945;28;20032;-63
2021/12/27 02:17:41;;;;;;;38.13;22.42;;;;;;;;;;5005280;28;21692;-64
2021/12/27 02:20:09;;;;;;;38.00;23.33;;;;;;;;;;4996696;28;20050;-65
2021/12/27 02:22:37;;;;;;;34.30;22.77;;;;;;;;;;4995387;28;20490;-65
2021/12/27 02:25:07;;;;;;;36.57;23.20;;;;;;;;;;4999902;28;20045;-64
2021/12/27 02:27:34;;;;;;;37.47;23.03;;;;;;;;;;4991403;28;20498;-64
2021/12/27 02:30:01;;;;;;;37.87;23.50;;;;;;;;;;4976077;28;20074;-65
2021/12/27 02:32:27;;;;;;;;;;;;;;;;;;4994815;28;20050;-65
2021/12/27 02:34:53;;;;;;;36.47;23.00;;;;;;;;;;5000606;28;19984;-65
2021/12/27 02:37:19;;;;;;;36.40;23.40;;;;;;;;;;4995225;28;20163;-65
2021/12/27 02:39:45;;;;;;;38.90;24.27;;;;;;;;;;5010984;28;20148;-64
2021/12/27 02:42:11;;;;;;;;;;;;;;;;;;4990005;28;20109;-65
2021/12/27 02:44:38;;;;;;;38.73;24.00;;;;;;;;;;5002591;28;20386;-65
2021/12/27 02:47:04;;;;;;;37.50;23.93;;;;;;;;;;4975023;28;20077;-65
2021/12/27 02:49:30;;;;;;;37.88;24.52;;;;;;;;;;4994639;28;20051;-63
2021/12/27 02:51:57;;;;;;;40.53;25.02;;;;;;;;;;4995271;28;20054;-64
2021/12/27 02:54:23;;;;;;;37.88;23.60;;;;;;;;;;4993455;28;20619;-64
2021/12/27 02:56:49;;;;;;;38.58;24.63;;;;;;;;;;4996087;28;20538;-66
2021/12/27 02:59:15;;;;;;;38.22;24.10;;;;;;;;;;5003960;28;20042;-65
2021/12/27 03:01:41;;;;;;;38.50;25.02;;;;;;;;;;4999365;28;20118;-65
2021/12/27 03:04:07;;;;;;;36.25;24.20;;;;;;;;;;4992742;28;20139;-66
2021/12/27 03:06:33;;;;;;;36.75;24.58;;;;;;;;;;4999837;28;20044;-65
2021/12/27 03:08:59;;;;;;;42.05;25.30;;;;;;;;;;5011882;28;20089;-68
2021/12/27 03:11:25;;;;;;;39.47;25.50;;;;;;;;;;5003484;28;20485;-66
2021/12/27 03:13:51;;;;;;;40.55;25.60;;;;;;;;;;4993643;28;20136;-64
2021/12/27 03:16:18;;;;;;;40.55;24.70;;;;;;;;;;4994763;28;20636;-65
2021/12/27 03:18:47;;;;;;;39.77;24.63;;;;;;;;;;4994307;28;20069;-64
2021/12/27 03:21:13;;;;;;;38.37;25.47;;;;;;;;;;4996913;28;20042;-65
2021/12/27 03:23:40;;;;;;;39.88;26.02;;;;;;;;;;4979917;28;20058;-65
2021/12/27 03:26:06;;;;;;;38.27;25.23;;;;;;;;;;5003731;28;20473;-66
2021/12/27 03:28:33;;;;;;;40.42;25.25;;;;;;;;;;5005308;28;20090;-68
2021/12/27 03:31:00;;;;;;;41.63;25.33;;;;;;;;;;5011698;28;20133;-64
2021/12/27 03:33:26;;;;;;;;;;;;;;;;;;4994206;28;20046;-65
2021/12/27 03:36:01;;;;;;;41.77;26.90;;;;;;;;;;4996545;28;19932;-67
2021/12/27 03:38:29;;;;;;;42.57;26.57;;;;;;;;;;4993483;28;20073;-68
2021/12/27 03:40:55;;;;;;;39.47;25.87;;;;;;;;;;4991669;28;20054;-64
2021/12/27 03:43:21;;;;;;;39.55;25.75;;;;;;;;;;5000055;28;20136;-64
2021/12/27 03:45:47;;;;;;;40.53;25.38;;;;;;;;;;4998481;28;20092;-67
2021/12/27 03:48:13;;;;;;;40.47;26.65;;;;;;;;;;4993401;28;20438;-67
2021/12/27 03:50:39;;;;;;;41.20;26.13;;;;;;;;;;4992285;28;20037;-64
2021/12/27 03:53:06;;;;;;;42.40;26.95;;;;;;;;;;5009560;28;20049;-64
2021/12/27 03:55:33;;;;;;;39.73;25.93;;;;;;;;;;4991818;28;20057;-65
2021/12/27 03:58:10;;;;;;;41.70;26.13;;;;;;;;;;5004190;28;20054;-65
2021/12/27 04:03:22;;;;;;;42.80;25.50;;;;;;;;;;5002138;28;20494;-64
2021/12/27 04:05:48;;;;;;;;;;;;;;;;;;4991849;28;20046;-64
2021/12/27 04:08:17;;;;;;;40.50;26.33;;;;;;;;;;5000711;28;19944;-66
2021/12/27 04:10:44;;;;;;;37.83;25.50;;;;;;;;;;5011982;28;20049;-64
2021/12/27 04:13:11;;;;;;;39.42;26.50;;;;;;;;;;5011580;28;20053;-63
2021/12/27 04:15:38;;;;;;;42.47;26.80;;;;;;;;;;5011771;28;20073;-65
2021/12/27 04:18:04;;;;;;;42.73;27.50;;;;;;;;;;5009382;28;20042;-65
2021/12/27 04:20:30;;;;;;;41.60;27.20;;;;;;;;;;4996134;28;20133;-66
2021/12/27 04:22:57;;;;;;;41.47;26.35;;;;;;;;;;5002360;28;20482;-65
2021/12/27 04:25:23;;;;;;;42.42;26.70;;;;;;;;;;4997962;28;20042;-64
2021/12/27 04:27:49;;;;;;;;;;;;;;;;;;5010193;28;20042;-67
2021/12/27 04:30:16;;;;;;;41.17;27.13;;;;;;;;;;5002262;28;19975;-65
2021/12/27 04:32:42;;;;;;;43.07;27.33;;;;;;;;;;4988457;28;20049;-63
2021/12/27 04:35:08;;;;;;;42.42;26.88;;;;;;;;;;5010735;28;20136;-65
2021/12/27 04:37:34;;;;;;;;;;;;;;;;;;4997558;28;20046;-65
2021/12/27 04:40:01;;;;;;;44.60;26.93;;;;;;;;;;4991824;28;19979;-65
2021/12/27 04:42:29;;;;;;;45.70;28.83;;;;;;;;;;4991914;28;20046;-66
2021/12/27 04:44:55;;;;;;;42.33;28.07;;;;;;;;;;4975771;28;20136;-64
2021/12/27 04:47:26;;;;;;;44.43;27.40;;;;;;;;;;5001248;28;20061;-64
2021/12/27 04:49:52;;;;;;;44.20;29.60;;;;;;;;;;5009215;28;20165;-64
2021/12/27 04:52:18;;;;;;;47.00;28.88;;;;;;;;;;4997929;28;20042;-65
2021/12/27 04:54:44;;;;;;;44.92;28.90;;;;;;;;;;4997526;28;20072;-65
2021/12/27 04:57:10;;;;;;;42.78;28.23;;;;;;;;;;4998111;28;20038;-66
2021/12/27 04:59:36;;;;;;;44.88;28.13;;;;;;;;;;4997596;28;20077;-66
2021/12/27 05:02:03;;;;;;;47.40;29.33;;;;;;;;;;5000179;28;20060;-65
2021/12/27 05:04:29;;;;;;;;;;;;;;;;;;4992850;28;20474;-67
2021/12/27 05:06:55;;;;;;;43.20;28.80;;;;;;;;;;4992829;28;19922;-66
2021/12/27 05:09:21;;;;;;;44.15;28.35;;;;;;;;;;5000886;28;20166;-65
2021/12/27 05:11:47;;;;;;;47.40;28.98;;;;;;;;;;5010030;28;20125;-65
2021/12/27 05:14:13;;;;;;;46.55;28.60;;;;;;;;;;4990842;28;20064;-67
2021/12/27 05:16:39;;;;;;;46.28;28.67;;;;;;;;;;5000459;28;20104;-65
2021/12/27 05:19:05;;;;;;;47.78;29.88;;;;;;;;;;5010438;28;20057;-66
2021/12/27 05:21:32;;;;;;;48.65;29.33;;;;;;;;;;5003678;28;20046;-64
2021/12/27 05:23:58;;;;;;;46.53;29.00;;;;;;;;;;5006613;28;20445;-66
2021/12/27 05:26:24;;;;;;;45.77;28.20;;;;;;;;;;4997480;28;20051;-66
2021/12/27 05:28:50;;;;;;;45.83;27.75;;;;;;;;;;4992202;28;20051;-66
2021/12/27 05:31:16;;;;;;;45.80;28.33;;;;;;;;;;4991471;28;20097;-66
2021/12/27 05:33:42;;;;;;;47.50;29.42;;;;;;;;;;5002043;28;20049;-72
2021/12/27 05:36:09;;;;;;;45.35;28.02;;;;;;;;;;4980733;28;20093;-67
2021/12/27 05:38:35;;;;;;;44.22;29.13;;;;;;;;;;5002187;28;20180;-68
2021/12/27 05:41:01;;;;;;;46.08;28.55;;;;;;;;;;5007995;28;20046;-66
2021/12/27 05:43:27;;;;;;;47.28;30.30;;;;;;;;;;5015011;28;20060;-67
2021/12/27 05:45:53;;;;;;;45.95;29.83;;;;;;;;;;4993999;28;20050;-66
2021/12/27 05:48:19;;;;;;;48.92;31.25;;;;;;;;;;5005279;28;20046;-66
2021/12/27 05:50:45;;;;;;;47.95;30.10;;;;;;;;;;5008142;28;20038;-66
2021/12/27 05:53:11;;;;;;;50.92;33.20;;;;;;;;;;4999004;28;20045;-66
2021/12/27 05:55:37;;;;;;;54.67;32.92;;;;;;;;;;5015019;28;20038;-67
2021/12/27 05:58:04;;;;;;;53.58;34.50;;;;;;;;;;5015135;28;20046;-65
2021/12/27 06:00:30;;;;;;;;;;;;;;;;;;5009142;28;20069;-65
2021/12/27 06:02:56;;;;;;;57.63;36.97;;;;;;;;;;4999412;28;19925;-66
2021/12/27 06:05:23;;;;;;;61.15;37.25;;;;;;;;;;5009073;28;20085;-66
2021/12/27 06:07:50;;;;;;;61.57;37.93;;;;;;;;;;5014659;28;20482;-66
2021/12/27 06:10:16;;;;;;;61.83;37.50;;;;;;;;;;5014121;28;20053;-66
2021/12/27 06:12:43;;;;;;;64.43;40.07;;;;;;;;;;5007251;28;20519;-66
2021/12/27 06:15:09;;;;;;;;;;;;;;;;;;5013428;28;20078;-68
2021/12/27 06:17:36;;;;;;;67.70;38.97;;;;;;;;;;5008350;28;19921;-66
2021/12/27 06:20:04;;;;;;;71.90;39.73;;;;;;;;;;5026544;28;20095;-65
2021/12/27 06:22:30;;;;;;;69.17;40.23;;;;;;;;;;5010494;28;20046;-66
2021/12/27 06:25:03;;;;;;;75.90;42.30;;;;;;;;;;5021275;28;20046;-66
2021/12/27 06:27:29;;;;;;;73.63;40.70;;;;;;;;;;5013809;28;20184;-65
2021/12/27 06:29:55;;;;;;;66.50;37.73;;;;;;;;;;5014201;28;20129;-65
2021/12/27 06:32:21;;;;;;;69.10;40.40;;;;;;;;;;5014898;28;20474;-69
2021/12/27 06:34:47;;;;;;;67.00;40.05;;;;;;;;;;4992854;28;20451;-64
2021/12/27 06:37:13;;;;;;;73.45;40.55;;;;;;;;;;4997570;28;20483;-67
2021/12/27 06:39:39;;;;;;;71.38;40.17;;;;;;;;;;5008280;28;20076;-65
2021/12/27 06:42:06;;;;;;;68.30;41.03;;;;;;;;;;4994870;28;20093;-66
2021/12/27 06:44:32;;;;;;;;;;;;;;;;;;5007620;28;20066;-64
2021/12/27 06:46:59;;;;;;;75.03;43.37;;;;;;;;;;5011217;28;20024;-66
2021/12/27 06:49:26;;;;;;;73.87;41.97;;;;;;;;;;5008773;28;20130;-65
2021/12/27 06:51:53;;;;;;;77.47;45.30;;;;;;;;;;5016657;28;20134;-66
2021/12/27 06:54:19;;;;;;;75.88;44.47;;;;;;;;;;4998255;28;20053;-65
2021/12/27 06:56:45;;;;;;;;;;;;;;;;;;4995685;28;20483;-66
2021/12/27 06:59:11;;;;;;;76.63;44.17;;;;;;;;;;5001549;28;19930;-66
2021/12/27 07:01:37;;;;;;;76.30;43.58;;;;;;;;;;5001161;28;20057;-69
2021/12/27 07:04:03;;;;;;;80.20;44.38;;;;;;;;;;4989718;28;20390;-65
2021/12/27 07:06:29;;;;;;;77.32;43.17;;;;;;;;;;5010241;28;20354;-66
2021/12/27 07:08:56;;;;;;;83.10;44.17;;;;;;;;;;4982075;28;20526;-66
2021/12/27 07:11:23;;;;;;;80.30;43.00;;;;;;;;;;5011025;28;20077;-66
2021/12/27 07:13:49;;;;;;;81.43;43.65;;;;;;;;;;5013667;28;20413;-66
2021/12/27 07:16:15;;;;;;;85.50;43.65;;;;;;;;;;4992994;28;20228;-65
2021/12/27 07:18:41;;;;;;;80.32;42.60;;;;;;;;;;5013148;28;20050;-66
2021/12/27 07:21:07;;;;;;;83.07;43.70;;;;;;;;;;5013533;28;20050;-66
2021/12/27 07:23:33;;;;;;;75.72;41.50;;;;;;;;;;5007006;28;20039;-66
2021/12/27 07:25:59;;;;;;;83.35;41.42;;;;;;;;;;4993908;28;20454;-65
2021/12/27 07:28:25;;;;;;;77.97;41.53;;;;;;;;;;4993530;28;20053;-66
2021/12/27 07:30:52;;;;;;;80.07;41.63;;;;;;;;;;4977023;28;20054;-65
2021/12/27 07:33:18;;;;;;;;;;;;;;;;;;4994682;28;20458;-66
2021/12/27 07:35:44;;;;;;;84.90;44.57;;;;;;;;;;4992779;28;19922;-66
2021/12/27 07:38:10;;;;;;;90.75;47.42;;;;;;;;;;4993910;28;20469;-65
2021/12/27 07:40:36;;;;;;;83.10;43.70;;;;;;;;;;4993720;28;20054;-67
2021/12/27 07:43:02;;;;;;;86.57;46.67;;;;;;;;;;4993987;28;20050;-64
2021/12/27 07:45:28;;;;;;;89.82;45.72;;;;;;;;;;4992539;28;20050;-66
2021/12/27 07:47:55;;;;;;;84.32;43.10;;;;;;;;;;4976308;28;20478;-66
2021/12/27 07:50:21;;;;;;;96.72;48.40;;;;;;;;;;4993696;28;20105;-66
2021/12/27 07:52:47;;;;;;;93.85;50.35;;;;;;;;;;4992892;28;20138;-66
2021/12/27 07:55:13;;;;;;;90.90;48.67;;;;;;;;;;4992637;28;20572;-65
2021/12/27 07:57:39;;;;;;;91.53;49.33;;;;;;;;;;4991552;28;20052;-67
2021/12/27 08:00:06;;;;;;;102.93;49.80;;;;;;;;;;4991980;28;20405;-66
2021/12/27 08:02:32;;;;;;;98.50;49.33;;;;;;;;;;4991230;28;20124;-68
2021/12/27 08:04:58;;;;;;;88.03;47.20;;;;;;;;;;4992060;28;20050;-67
2021/12/27 08:07:25;;;;;;;94.25;49.47;;;;;;;;;;4991443;28;20061;-66
2021/12/27 08:09:51;;;;;;;97.00;48.85;;;;;;;;;;4991408;28;20180;-66
2021/12/27 08:12:17;;;;;;;96.22;49.40;;;;;;;;;;4991467;28;20386;-67
2021/12/27 08:14:43;;;;;;;88.13;46.83;;;;;;;;;;4974037;28;20054;-65
2021/12/27 08:17:09;;;;;;;90.18;46.80;;;;;;;;;;4991467;28;20085;-66
2021/12/27 08:19:35;;;;;;;85.80;46.45;;;;;;;;;;4990757;28;20046;-66
2021/12/27 08:22:01;;;;;;;85.07;45.13;;;;;;;;;;4989824;28;20499;-65
2021/12/27 08:24:27;;;;;;;;;;;;;;;;;;4973610;28;20053;-66
2021/12/27 08:26:54;;;;;;;87.07;45.90;;;;;;;;;;4989666;28;19921;-66
2021/12/27 08:29:21;;;;;;;87.63;44.77;;;;;;;;;;4991270;28;20053;-66
2021/12/27 08:31:47;;;;;;;86.70;48.30;;;;;;;;;;4990902;28;20171;-66
2021/12/27 08:34:13;;;;;;;89.28;48.30;;;;;;;;;;4990608;28;20112;-65
2021/12/27 08:36:39;;;;;;;81.20;47.15;;;;;;;;;;4990477;28;20050;-67
2021/12/27 08:39:05;;;;;;;84.75;45.50;;;;;;;;;;4973480;28;20157;-66
2021/12/27 08:41:32;;;;;;;85.55;44.78;;;;;;;;;;4990428;28;20049;-67
2021/12/27 08:44:00;;;;;;;100.80;45.87;;;;;;;;;;4983099;28;20084;-67
2021/12/27 08:46:26;;;;;;;89.13;46.47;;;;;;;;;;4952825;28;20094;-66
2021/12/27 08:48:53;;;;;;;92.10;48.35;;;;;;;;;;4951842;29;20055;-67
2021/12/27 08:51:19;;;;;;;93.30;49.03;;;;;;;;;;4952532;29;20047;-65
2021/12/27 08:53:45;;;;;;;96.45;46.30;;;;;;;;;;4951786;29;20142;-65
2021/12/27 08:56:11;;;;;;;88.63;44.30;;;;;;;;;;4952187;29;20047;-68
2021/12/27 08:58:37;;;;;;;87.43;46.05;;;;;;;;;;4952101;29;20047;-67
2021/12/27 09:01:05;;;;;;;93.07;45.83;;;;;;;;;;4983825;28;20186;-66
2021/12/27 09:03:31;;;;;;;90.67;45.67;;;;;;;;;;4952382;28;20051;-67
2021/12/27 09:05:57;;;;;;;92.30;47.72;;;;;;;;;;4952264;29;20137;-67
2021/12/27 09:08:24;;;;;;;89.53;44.08;;;;;;;;;;4951854;28;20044;-66
2021/12/27 09:10:50;;;;;;;88.30;44.60;;;;;;;;;;4950478;28;20049;-67
2021/12/27 09:13:16;;;;;;;86.57;43.67;;;;;;;;;;4983668;28;20051;-66
2021/12/27 09:15:42;;;;;;;87.30;43.55;;;;;;;;;;4951959;29;20044;-67
2021/12/27 09:18:08;;;;;;;83.78;43.10;;;;;;;;;;4952183;29;20056;-66
2021/12/27 09:20:34;;;;;;;84.85;43.67;;;;;;;;;;4952355;29;20043;-66
2021/12/27 09:23:00;;;;;;;89.25;43.97;;;;;;;;;;4952744;29;20051;-66
2021/12/27 09:25:26;;;;;;;80.82;43.25;;;;;;;;;;4952115;28;20466;-67
2021/12/27 09:27:53;;;;;;;91.93;45.08;;;;;;;;;;4951797;29;20480;-66
2021/12/27 09:30:19;;;;;;;100.70;46.97;;;;;;;;;;4982986;28;20055;-69
2021/12/27 09:32:45;;;;;;;97.35;48.33;;;;;;;;;;4951672;28;20448;-66
2021/12/27 09:35:11;;;;;;;86.28;44.72;;;;;;;;;;4952253;29;20054;-66
2021/12/27 09:37:37;;;;;;;93.10;45.70;;;;;;;;;;4951514;29;20043;-67
2021/12/27 09:40:04;;;;;;;102.15;47.25;;;;;;;;;;4952136;28;20399;-66
2021/12/27 09:42:30;;;;;;;;;;;;;;;;;;4983780;28;20054;-67
2021/12/27 09:44:57;;;;;;;93.83;45.17;;;;;;;;;;4978006;28;20016;-66
2021/12/27 09:47:23;;;;;;;97.70;45.33;;;;;;;;;;4990984;28;20042;-67
2021/12/27 09:49:49;;;;;;;100.72;46.30;;;;;;;;;;4990357;28;20065;-67
2021/12/27 09:52:16;;;;;;;102.83;46.23;;;;;;;;;;4990645;28;20145;-66
2021/12/27 09:54:45;;;;;;;90.13;45.13;;;;;;;;;;4990379;28;20061;-66
2021/12/27 09:57:11;;;;;;;100.73;47.77;;;;;;;;;;4973209;28;20042;-67
2021/12/27 09:59:37;;;;;;;104.80;49.67;;;;;;;;;;4973385;28;20042;-67
2021/12/27 10:02:03;;;;;;;109.35;48.75;;;;;;;;;;4956848;28;20054;-67
2021/12/27 10:04:29;;;;;;;108.75;49.22;;;;;;;;;;4990366;28;20054;-67
2021/12/27 10:06:55;;;;;;;118.93;52.10;;;;;;;;;;4990014;28;20155;-67
2021/12/27 10:09:21;;;;;;;;;;;;;;;;;;4991055;28;20054;-67
2021/12/27 10:11:48;;;;;;;116.00;53.47;;;;;;;;;;4988776;28;19945;-66
2021/12/27 10:14:14;;;;;;;;;;;;;;;;;;4990839;28;20051;-67
2021/12/27 10:16:42;;;;;;;120.47;58.10;;;;;;;;;;4990292;28;19922;-67
2021/12/27 10:19:10;;;;;;;143.33;56.90;;;;;;;;;;4991402;28;20078;-67
2021/12/27 10:21:41;;;;;;;121.37;55.37;;;;;;;;;;4993707;28;20050;-66
2021/12/27 10:24:07;;;;;;;129.50;54.37;;;;;;;;;;4993572;28;20479;-68
2021/12/27 10:26:34;;;;;;;138.23;55.13;;;;;;;;;;4993997;28;20049;-67
2021/12/27 10:29:27;;;;;;;147.47;57.97;;;;;;;;;;4993362;28;20049;-66
2021/12/27 10:32:06;;;;;;;133.70;54.53;;;;;;;;;;4953933;28;20145;-68
2021/12/27 10:34:43;;;;;;;134.23;55.63;;;;;;;;;;4993912;28;20108;-67
2021/12/27 10:37:15;;;;;;;153.02;58.83;;;;;;;;;;4993654;28;20042;-67
2021/12/27 10:39:43;;;;;;;146.93;56.53;;;;;;;;;;4976451;28;20090;-67
2021/12/27 10:42:10;;;;;;;173.60;66.27;;;;;;;;;;4993060;28;20050;-68
2021/12/27 10:44:37;;;;;;;154.57;60.53;;;;;;;;;;4993405;28;20069;-66
2021/12/27 10:47:04;;;;;;;188.20;64.20;;;;;;;;;;4992975;28;20117;-65
2021/12/27 10:49:46;;;;;;;179.93;62.27;;;;;;;;;;4993397;28;20046;-66
2021/12/27 10:52:12;;;;;;;199.20;64.23;;;;;;;;;;4993396;28;20133;-66
2021/12/27 10:54:38;;;;;;;190.80;63.30;;;;;;;;;;4993379;28;20058;-66
2021/12/27 10:57:05;;;;;;;181.38;60.67;;;;;;;;;;4992848;28;20509;-67
2021/12/27 10:59:31;;;;;;;195.13;64.47;;;;;;;;;;4993609;28;20134;-67
2021/12/27 11:02:07;;;;;;;187.82;62.15;;;;;;;;;;4993003;28;20046;-67
2021/12/27 11:04:33;;;;;;;199.85;64.80;;;;;;;;;;4993611;28;20096;-67
2021/12/27 11:07:00;;;;;;;216.63;68.45;;;;;;;;;;4992826;28;20558;-67
2021/12/27 11:09:26;;;;;;;216.27;71.07;;;;;;;;;;4975648;28;20092;-66
2021/12/27 11:11:53;;;;;;;225.03;69.50;;;;;;;;;;4992761;28;20454;-66
2021/12/27 11:14:19;;;;;;;248.27;71.65;;;;;;;;;;4993301;28;20046;-66
2021/12/27 11:16:45;;;;;;;228.30;69.25;;;;;;;;;;4993107;28;20410;-66
2021/12/27 11:19:11;;;;;;;;;;;;;;;;;;4992998;28;20046;-67
2021/12/27 11:21:41;;;;;;;227.53;68.57;;;;;;;;;;4992961;28;19945;-67
2021/12/27 11:24:07;;;;;;;225.03;69.57;;;;;;;;;;4992562;28;20046;-66
2021/12/27 11:26:33;;;;;;;;;;;;;;;;;;4993169;28;20443;-67
2021/12/27 11:29:13;;;;;;;237.40;71.87;;;;;;;;;;4992497;28;19929;-65
2021/12/27 11:31:39;;;;;;;261.47;76.10;;;;;;;;;;4975147;28;20137;-66
2021/12/27 11:34:07;;;;;;;218.70;69.07;;;;;;;;;;4992123;28;20053;-67
2021/12/27 11:36:37;;;;;;;242.57;70.83;;;;;;;;;;4992355;28;20042;-67
2021/12/27 11:39:22;;;;;;;279.60;80.87;;;;;;;;;;4974733;28;20494;-66
2021/12/27 11:41:57;;;;;;;243.83;72.43;;;;;;;;;;4991995;28;20570;-65
2021/12/27 11:44:33;;;;;;;273.97;80.97;;;;;;;;;;4971635;28;20069;-66
2021/12/27 11:47:00;;;;;;;287.43;81.50;;;;;;;;;;4972567;28;20079;-67
2021/12/27 11:49:32;;;;;;;273.73;77.20;;;;;;;;;;4973067;28;20104;-66
2021/12/27 11:52:17;;;;;;;288.47;81.47;;;;;;;;;;4971530;28;20403;-65
2021/12/27 11:54:56;;;;;;;321.73;82.63;;;;;;;;;;4988111;28;20054;-65
2021/12/27 11:57:42;;;;;;;340.03;83.53;;;;;;;;;;4972695;28;20102;-66
2021/12/27 12:00:28;;;;;;;351.03;85.87;;;;;;;;;;4972504;28;20083;-66
2021/12/27 12:02:56;;;;;;;317.80;81.93;;;;;;;;;;4968752;28;20063;-65
2021/12/27 12:05:44;;;;;;;381.67;86.93;;;;;;;;;;4972510;28;20462;-65
2021/12/27 12:08:14;;;;;;;328.43;81.73;;;;;;;;;;4972443;28;20043;-67
2021/12/27 12:11:13;;;;;;;262.43;72.20;;;;;;;;;;4972796;28;20047;-67
2021/12/27 12:13:43;;;;;;;252.20;71.13;;;;;;;;;;4968534;28;20054;-67
2021/12/27 12:16:14;;;;;;;320.90;79.10;;;;;;;;;;4972181;28;20054;-67
2021/12/27 12:18:43;;;;;;;311.77;78.10;;;;;;;;;;4972932;28;20134;-66
2021/12/27 12:21:28;;;;;;;293.97;79.33;;;;;;;;;;4972409;28;20050;-65
2021/12/27 12:23:56;;;;;;;341.73;84.97;;;;;;;;;;4972551;28;20054;-67
2021/12/27 12:26:22;;;;;;;320.13;79.57;;;;;;;;;;4972167;28;20042;-65
2021/12/27 12:28:48;;;;;;;344.88;89.35;;;;;;;;;;4972617;28;20082;-65
2021/12/27 12:31:15;;;;;;;370.90;86.38;;;;;;;;;;4972362;28;20054;-66
2021/12/27 12:33:41;;;;;;;292.10;79.00;;;;;;;;;;4971560;28;20069;-66
2021/12/27 12:36:07;;;;;;;395.08;87.72;;;;;;;;;;4972263;28;20046;-66
2021/12/27 12:38:40;;;;;;;364.13;86.78;;;;;;;;;;4972619;28;20055;-66
2021/12/27 12:41:06;;;;;;;387.00;88.70;;;;;;;;;;4971086;28;20054;-66
2021/12/27 12:43:37;;;;;;;386.10;91.97;;;;;;;;;;4971036;28;20555;-65
2021/12/27 12:46:13;;;;;;;343.77;81.27;;;;;;;;;;4974020;28;20058;-66
2021/12/27 12:48:40;;;;;;;379.65;90.03;;;;;;;;;;4991754;28;20095;-65
2021/12/27 12:51:06;;;;;;;427.73;94.60;;;;;;;;;;4991204;28;20046;-65
2021/12/27 12:53:33;;;;;;;318.70;80.95;;;;;;;;;;4991494;28;20108;-66
2021/12/27 12:56:04;;;;;;;359.87;86.93;;;;;;;;;;4990636;28;20061;-66
2021/12/27 12:58:37;;;;;;;430.53;92.20;;;;;;;;;;4992197;28;20086;-66
2021/12/27 13:01:08;;;;;;;386.33;91.30;;;;;;;;;;4991188;28;20050;-65
2021/12/27 13:03:34;;;;;;;401.43;91.07;;;;;;;;;;4991432;28;20129;-68
2021/12/27 13:06:03;;;;;;;410.43;90.20;;;;;;;;;;4974015;28;20085;-64
2021/12/27 13:08:29;;;;;;;386.57;88.83;;;;;;;;;;4991907;28;20042;-63
2021/12/27 13:10:56;;;;;;;;;;;;;;;;;;4958590;28;20046;-64
2021/12/27 13:13:22;;;;;;;292.80;74.43;;;;;;;;;;4990970;28;19922;-64
2021/12/27 13:15:53;;;;;;;386.13;88.53;;;;;;;;;;4991428;28;20090;-63
2021/12/27 13:18:20;;;;;;;342.07;83.27;;;;;;;;;;4990671;28;20177;-64
2021/12/27 13:20:48;;;;;;;363.40;82.63;;;;;;;;;;4973792;28;20147;-64
2021/12/27 13:23:19;;;;;;;400.93;87.87;;;;;;;;;;4990600;28;20185;-64
2021/12/27 13:25:52;;;;;;;384.63;88.00;;;;;;;;;;4991392;28;20061;-65
2021/12/27 13:28:19;;;;;;;400.93;89.20;;;;;;;;;;4990819;28;20054;-66
2021/12/27 13:30:46;;;;;;;393.40;87.50;;;;;;;;;;4991193;28;20050;-65
2021/12/27 13:33:14;;;;;;;429.57;88.57;;;;;;;;;;4990824;28;20060;-66
2021/12/27 13:35:40;;;;;;;447.07;91.67;;;;;;;;;;4991052;28;20046;-65
2021/12/27 13:38:16;;;;;;;327.25;78.28;;;;;;;;;;4973942;28;20042;-64
2021/12/27 13:40:46;;;;;;;406.08;87.38;;;;;;;;;;4991215;28;20054;-66
2021/12/27 13:43:12;;;;;;;436.40;88.53;;;;;;;;;;4990536;28;20208;-66
2021/12/27 13:45:41;;;;;;;456.20;93.30;;;;;;;;;;4990903;28;20117;-65
2021/12/27 13:48:08;;;;;;;445.23;89.70;;;;;;;;;;4991082;28;20038;-64
2021/12/27 13:50:35;;;;;;;425.57;89.20;;;;;;;;;;4974084;28;20058;-65
2021/12/27 13:53:09;;;;;;;500.97;96.30;;;;;;;;;;4974593;28;20050;-66
2021/12/27 13:55:35;;;;;;;465.63;97.00;;;;;;;;;;4994928;28;20189;-66
2021/12/27 13:58:30;;;;;;;498.90;97.33;;;;;;;;;;4994728;28;20457;-65
2021/12/27 14:00:56;;;;;;;494.33;96.03;;;;;;;;;;4992427;28;20050;-66
2021/12/27 14:03:24;;;;;;;531.97;104.93;;;;;;;;;;4994621;28;20082;-66
2021/12/27 14:05:54;;;;;;;435.47;94.73;;;;;;;;;;4977651;28;20081;-65
2021/12/27 14:08:20;;;;;;;489.83;97.10;;;;;;;;;;4994209;28;20046;-65
2021/12/27 14:11:05;;;;;;;496.70;99.85;;;;;;;;;;4994538;28;20056;-66
2021/12/27 14:13:44;;;;;;;479.63;100.40;;;;;;;;;;4977504;28;20054;-65
2021/12/27 14:16:26;;;;;;;511.67;104.03;;;;;;;;;;4994769;28;20521;-65
2021/12/27 14:19:05;;;;;;;435.23;94.97;;;;;;;;;;4994609;28;20093;-64
2021/12/27 14:21:32;;;;;;;516.93;102.63;;;;;;;;;;4994229;28;20058;-66
2021/12/27 14:24:06;;;;;;;509.33;104.50;;;;;;;;;;4994720;28;20054;-65
2021/12/27 14:26:32;;;;;;;550.70;106.87;;;;;;;;;;4994165;28;20088;-65
2021/12/27 14:28:58;;;;;;;;;;;;;;;;;;4994981;28;20042;-65